createdAt,value
2023-03-15T00:00:45.718Z,17.90
2023-03-15T00:03:14.803Z,15.63
2023-03-15T00:05:45.655Z,16.03
2023-03-15T00:08:12.765Z,15.37
2023-03-15T00:10:43.160Z,15.37
2023-03-15T00:13:10.301Z,14.00
2023-03-15T00:15:44.392Z,14.30
2023-03-15T00:18:13.292Z,16.60
2023-03-15T00:20:40.129Z,16.63
2023-03-15T00:23:06.968Z,17.23
2023-03-15T00:25:36.500Z,19.63
2023-03-15T00:28:05.928Z,14.83
2023-03-15T00:30:33.128Z,18.93
2023-03-15T00:32:59.939Z,16.63
2023-03-15T00:35:27.132Z,15.37
2023-03-15T00:37:57.130Z,21.30
2023-03-15T00:40:24.472Z,15.30
2023-03-15T00:42:51.650Z,14.47
2023-03-15T00:45:21.891Z,14.27
2023-03-15T00:47:52.683Z,15.10
2023-03-15T00:50:19.992Z,11.27
2023-03-15T00:52:46.843Z,10.17
2023-03-15T00:55:15.351Z,3.40
2023-03-15T00:57:42.973Z,2.23
2023-03-15T01:00:11.841Z,1.97
2023-03-15T01:02:38.641Z,4.17
2023-03-15T01:05:09.155Z,2.40
2023-03-15T01:07:41.114Z,2.30
2023-03-15T01:10:08.081Z,2.20
2023-03-15T01:12:35.039Z,2.87
2023-03-15T01:15:02.450Z,5.50
2023-03-15T01:17:29.202Z,2.30
2023-03-15T01:20:00.944Z,1.53
2023-03-15T01:22:29.854Z,3.07
2023-03-15T01:24:56.691Z,1.53
2023-03-15T01:27:23.455Z,2.67
2023-03-15T01:29:50.358Z,2.83
2023-03-15T01:32:17.196Z,1.70
2023-03-15T01:34:48.750Z,2.47
2023-03-15T01:37:15.499Z,4.50
2023-03-15T01:39:42.741Z,2.17
2023-03-15T01:42:12.072Z,2.57
2023-03-15T01:45:00.309Z,3.43
2023-03-15T01:47:27.357Z,3.43
2023-03-15T01:50:07.300Z,5.90
2023-03-15T01:52:36.159Z,2.77
2023-03-15T01:55:11.185Z,2.97
2023-03-15T01:57:41.295Z,2.37
2023-03-15T02:00:18.074Z,1.90
2023-03-15T02:02:48.036Z,6.00
2023-03-15T02:05:21.022Z,3.57
2023-03-15T02:07:50.320Z,5.33
2023-03-15T02:10:36.102Z,4.40
2023-03-15T02:13:03.002Z,4.73
2023-03-15T02:15:32.249Z,5.37
2023-03-15T02:17:59.054Z,3.33
2023-03-15T02:20:34.788Z,2.37
2023-03-15T02:23:06.542Z,4.77
2023-03-15T02:26:02.391Z,3.93
2023-03-15T02:28:29.169Z,5.20
2023-03-15T02:30:58.638Z,1.90
2023-03-15T02:33:52.155Z,3.03
2023-03-15T02:36:26.941Z,2.50
2023-03-15T02:38:54.132Z,4.50
2023-03-15T02:41:37.886Z,4.53
2023-03-15T02:44:11.593Z,3.93
2023-03-15T02:46:38.363Z,4.90
2023-03-15T02:49:06.381Z,7.10
2023-03-15T02:51:33.153Z,7.80
2023-03-15T02:54:02.071Z,5.53
2023-03-15T02:56:28.847Z,3.60
2023-03-15T02:58:58.084Z,4.13
2023-03-15T03:01:27.190Z,6.47
2023-03-15T03:03:56.462Z,4.57
2023-03-15T03:06:25.456Z,10.03
2023-03-15T03:08:54.594Z,4.77
2023-03-15T03:11:21.400Z,4.50
2023-03-15T03:13:51.226Z,8.33
2023-03-15T03:16:18.036Z,5.47
2023-03-15T03:18:44.835Z,7.53
2023-03-15T03:21:11.589Z,5.17
2023-03-15T03:23:41.242Z,2.77
2023-03-15T03:26:16.553Z,5.10
2023-03-15T03:28:44.940Z,4.53
2023-03-15T03:31:22.157Z,5.40
2023-03-15T03:33:49.034Z,8.03
2023-03-15T03:36:16.969Z,8.57
2023-03-15T03:38:44.951Z,5.60
2023-03-15T03:41:11.926Z,6.13
2023-03-15T03:43:38.723Z,3.33
2023-03-15T03:46:05.804Z,9.83
2023-03-15T03:48:34.801Z,7.50
2023-03-15T03:51:03.865Z,8.37
2023-03-15T03:53:30.649Z,5.93
2023-03-15T03:55:57.536Z,5.67
2023-03-15T03:58:24.319Z,3.47
2023-03-15T04:00:54.332Z,6.43
2023-03-15T04:03:27.378Z,8.30
2023-03-15T04:05:57.284Z,5.00
2023-03-15T04:08:24.464Z,7.77
2023-03-15T04:10:55.295Z,7.17
2023-03-15T04:13:24.805Z,7.40
2023-03-15T04:15:51.952Z,7.23
2023-03-15T04:18:18.805Z,7.90
2023-03-15T04:20:49.807Z,9.93
2023-03-15T04:23:19.141Z,7.40
2023-03-15T04:25:51.743Z,10.77
2023-03-15T04:28:19.258Z,9.33
2023-03-15T04:30:47.948Z,11.93
2023-03-15T04:33:14.726Z,11.17
2023-03-15T04:35:42.713Z,7.13
2023-03-15T04:38:09.801Z,7.57
2023-03-15T04:40:39.158Z,10.63
2023-03-15T04:43:11.513Z,7.93
2023-03-15T04:45:38.362Z,8.40
2023-03-15T04:48:05.278Z,6.87
2023-03-15T04:50:34.520Z,11.37
2023-03-15T04:53:01.694Z,10.47
2023-03-15T04:55:28.471Z,9.30
2023-03-15T04:57:55.527Z,11.20
2023-03-15T05:00:22.323Z,9.47
2023-03-15T05:02:54.932Z,7.50
2023-03-15T05:05:23.479Z,12.13
2023-03-15T05:07:50.243Z,9.43
2023-03-15T05:10:22.432Z,9.00
2023-03-15T05:12:49.229Z,11.47
2023-03-15T05:15:16.094Z,10.50
2023-03-15T05:17:43.161Z,5.67
2023-03-15T05:20:13.259Z,7.60
2023-03-15T05:22:40.883Z,9.13
2023-03-15T05:25:08.340Z,9.03
2023-03-15T05:27:35.224Z,8.03
2023-03-15T05:30:04.831Z,6.50
2023-03-15T05:32:34.853Z,9.60
2023-03-15T05:35:02.137Z,9.40
2023-03-15T05:37:29.028Z,10.03
2023-03-15T05:39:56.062Z,14.77
2023-03-15T05:42:26.275Z,10.37
2023-03-15T05:44:53.623Z,11.83
2023-03-15T05:47:20.573Z,12.10
2023-03-15T05:49:49.476Z,9.10
2023-03-15T05:52:16.616Z,10.17
2023-03-15T05:54:45.943Z,11.70
2023-03-15T05:57:15.228Z,9.63
2023-03-15T05:59:46.379Z,14.03
2023-03-15T06:02:13.200Z,11.03
2023-03-15T06:04:40.090Z,15.47
2023-03-15T06:07:09.235Z,12.13
2023-03-15T06:09:36.566Z,14.20
2023-03-15T06:12:03.628Z,16.50
2023-03-15T06:14:32.778Z,14.87
2023-03-15T06:16:59.669Z,17.80
2023-03-15T06:19:29.533Z,11.17
2023-03-15T06:21:58.695Z,15.00
2023-03-15T06:24:27.978Z,17.97
2023-03-15T06:26:54.932Z,13.13
2023-03-15T06:29:21.983Z,18.23
2023-03-15T06:31:51.166Z,20.50
2023-03-15T06:34:17.953Z,14.17
2023-03-15T06:36:49.993Z,16.07
2023-03-15T06:39:16.830Z,16.63
2023-03-15T06:41:43.665Z,13.07
2023-03-15T06:44:10.696Z,16.43
2023-03-15T06:46:37.594Z,15.33
2023-03-15T06:49:09.019Z,20.40
2023-03-15T06:51:35.888Z,20.27
2023-03-15T06:54:05.152Z,15.33
2023-03-15T06:56:37.412Z,16.97
2023-03-15T06:59:04.578Z,15.07
2023-03-15T07:01:31.477Z,18.60
2023-03-15T07:03:58.269Z,18.20
2023-03-15T07:06:25.344Z,16.27
2023-03-15T07:08:54.256Z,15.47
2023-03-15T07:11:21.016Z,15.27
2023-03-15T07:13:47.896Z,18.17
2023-03-15T07:16:14.660Z,18.80
2023-03-15T07:18:43.728Z,19.20
2023-03-15T07:21:10.537Z,18.77
2023-03-15T07:23:37.314Z,18.87
2023-03-15T07:26:06.306Z,18.93
2023-03-15T07:28:33.197Z,13.93
2023-03-15T07:31:01.883Z,17.73
2023-03-15T07:33:32.372Z,15.30
2023-03-15T07:36:04.255Z,18.27
2023-03-15T07:38:33.825Z,20.23
2023-03-15T07:41:09.345Z,20.47
2023-03-15T07:43:38.628Z,27.37
2023-03-15T07:46:08.122Z,16.83
2023-03-15T07:48:42.112Z,21.87
2023-03-15T07:51:11.469Z,18.00
2023-03-15T07:53:38.273Z,18.07
2023-03-15T07:56:05.445Z,19.90
2023-03-15T07:58:32.247Z,12.30
2023-03-15T08:01:04.143Z,13.63
2023-03-15T08:03:31.611Z,20.60
2023-03-15T08:06:03.552Z,15.17
2023-03-15T08:08:32.779Z,18.77
2023-03-15T08:10:59.831Z,18.00
2023-03-15T08:13:26.606Z,16.57
2023-03-15T08:15:53.450Z,19.83
2023-03-15T08:18:20.269Z,19.00
2023-03-15T08:20:47.058Z,11.67
2023-03-15T08:23:16.527Z,15.43
2023-03-15T08:25:46.270Z,18.80
2023-03-15T08:28:13.109Z,12.27
2023-03-15T08:30:40.250Z,17.37
2023-03-15T08:33:07.836Z,13.80
2023-03-15T08:35:37.236Z,19.73
2023-03-15T08:38:04.031Z,16.10
2023-03-15T08:40:30.931Z,14.90
2023-03-15T08:42:57.890Z,14.57
2023-03-15T08:45:27.445Z,13.47
2023-03-15T08:48:00.286Z,15.87
2023-03-15T08:50:31.811Z,11.53
2023-03-15T08:52:58.581Z,17.63
2023-03-15T08:55:27.915Z,11.27
2023-03-15T08:57:54.770Z,10.50
2023-03-15T09:00:23.112Z,12.93
2023-03-15T09:02:52.016Z,16.73
2023-03-15T09:05:24.533Z,12.10
2023-03-15T09:07:53.170Z,11.17
2023-03-15T09:10:20.186Z,14.53
2023-03-15T09:12:51.082Z,9.90
2023-03-15T09:15:21.729Z,15.40
2023-03-15T09:17:50.363Z,12.33
2023-03-15T09:20:22.015Z,13.97
2023-03-15T09:22:53.618Z,10.77
2023-03-15T09:25:20.540Z,13.03
2023-03-15T09:27:47.354Z,17.33
2023-03-15T09:30:14.435Z,17.73
2023-03-15T09:32:41.534Z,9.33
2023-03-15T09:35:09.114Z,13.37
2023-03-15T09:37:42.493Z,12.83
2023-03-15T09:40:22.762Z,14.00
2023-03-15T09:43:07.741Z,8.97
2023-03-15T09:45:40.792Z,11.13
2023-03-15T09:48:17.633Z,15.43
2023-03-15T09:51:11.808Z,14.10
2023-03-15T09:53:56.839Z,11.97
2023-03-15T09:56:40.862Z,14.17
2023-03-15T09:59:09.235Z,18.93
2023-03-15T10:01:37.699Z,14.40
2023-03-15T10:04:28.995Z,12.40
2023-03-15T10:06:59.902Z,11.67
2023-03-15T10:09:29.734Z,14.23
2023-03-15T10:12:05.913Z,12.77
2023-03-15T10:14:57.562Z,14.40
2023-03-15T10:17:59.543Z,14.80
2023-03-15T10:20:28.192Z,14.00
2023-03-15T10:23:31.202Z,14.17
2023-03-15T10:25:57.966Z,15.47
2023-03-15T10:28:26.025Z,12.47
2023-03-15T10:30:52.950Z,13.50
2023-03-15T10:33:33.026Z,20.53
2023-03-15T10:36:10.721Z,10.07
2023-03-15T10:38:38.946Z,10.80
2023-03-15T10:41:06.843Z,12.07
2023-03-15T10:43:36.946Z,12.43
2023-03-15T10:46:21.371Z,15.43
2023-03-15T10:49:01.077Z,12.00
2023-03-15T10:51:32.874Z,15.20
2023-03-15T10:54:07.212Z,9.43
2023-03-15T10:56:42.428Z,13.73
2023-03-15T10:59:19.205Z,13.10
2023-03-15T11:01:48.296Z,16.50
2023-03-15T11:04:27.470Z,12.63
2023-03-15T11:06:57.030Z,12.17
2023-03-15T11:09:30.359Z,18.87
2023-03-15T11:12:01.151Z,13.10
2023-03-15T11:14:36.908Z,11.53
2023-03-15T11:17:04.319Z,12.93
2023-03-15T11:19:37.948Z,14.40
2023-03-15T11:22:06.970Z,15.50
2023-03-15T11:24:34.090Z,14.07
2023-03-15T11:27:04.449Z,17.43
2023-03-15T11:29:32.673Z,15.03
2023-03-15T11:32:06.162Z,16.80
2023-03-15T11:34:48.804Z,13.00
2023-03-15T11:37:47.466Z,8.70
2023-03-15T11:40:26.178Z,10.40
2023-03-15T11:43:03.696Z,9.33
2023-03-15T11:45:39.682Z,10.10
2023-03-15T11:48:42.438Z,11.00
2023-03-15T11:51:11.598Z,11.63
2023-03-15T11:54:06.727Z,7.83
2023-03-15T11:56:56.317Z,11.47
2023-03-15T11:59:28.765Z,14.47
2023-03-15T12:02:26.408Z,8.20
2023-03-15T12:04:57.251Z,9.97
2023-03-15T12:07:35.225Z,13.57
2023-03-15T12:10:05.052Z,9.33
2023-03-15T12:12:31.867Z,12.03
2023-03-15T12:15:20.479Z,11.87
2023-03-15T12:18:00.360Z,8.13
2023-03-15T12:20:43.007Z,11.20
2023-03-15T12:23:19.009Z,9.67
2023-03-15T12:26:27.729Z,6.30
2023-03-15T12:29:06.881Z,9.20
2023-03-15T12:31:54.609Z,9.23
2023-03-15T12:34:25.694Z,13.80
2023-03-15T12:36:57.055Z,8.70
2023-03-15T12:39:51.259Z,8.90
2023-03-15T12:42:33.172Z,15.97
2023-03-15T12:45:20.492Z,9.73
2023-03-15T12:48:13.955Z,10.30
2023-03-15T12:50:47.063Z,15.53
2023-03-15T12:53:36.999Z,13.70
2023-03-15T12:56:18.894Z,11.87
2023-03-15T12:58:51.550Z,8.73
2023-03-15T13:01:18.364Z,10.10
2023-03-15T13:03:45.773Z,13.90
2023-03-15T13:06:27.973Z,11.47
2023-03-15T13:09:12.665Z,18.20
2023-03-15T13:11:44.434Z,9.67
2023-03-15T13:14:36.002Z,12.97
2023-03-15T13:17:23.592Z,15.03
2023-03-15T13:19:57.750Z,10.63
2023-03-15T13:22:54.930Z,8.80
2023-03-15T13:25:28.934Z,10.93
2023-03-15T13:27:56.553Z,10.63
2023-03-15T13:30:41.251Z,12.00
2023-03-15T13:33:24.590Z,11.93
2023-03-15T13:35:58.283Z,11.40
2023-03-15T13:38:27.704Z,8.87
2023-03-15T13:40:57.767Z,7.80
2023-03-15T13:43:30.132Z,10.33
2023-03-15T13:45:59.897Z,12.93
2023-03-15T13:48:31.141Z,13.43
2023-03-15T13:51:08.452Z,8.97
2023-03-15T13:53:48.979Z,12.97
2023-03-15T13:56:18.301Z,11.17
2023-03-15T13:58:47.599Z,13.60
2023-03-15T14:01:14.543Z,11.33
2023-03-15T14:03:46.540Z,10.17
2023-03-15T14:06:13.980Z,10.47
2023-03-15T14:08:40.842Z,13.63
2023-03-15T14:11:12.241Z,9.67
2023-03-15T14:13:54.517Z,11.03
2023-03-15T14:16:57.244Z,14.53
2023-03-15T14:19:31.873Z,23.43
2023-03-15T14:22:19.927Z,16.63
2023-03-15T14:24:53.248Z,17.77
2023-03-15T14:27:26.602Z,12.17
2023-03-15T14:29:57.679Z,12.97
2023-03-15T14:32:37.853Z,12.93
2023-03-15T14:35:24.314Z,12.63
2023-03-15T14:38:04.265Z,13.00
2023-03-15T14:40:38.637Z,12.60
2023-03-15T14:43:06.476Z,10.47
2023-03-15T14:45:34.070Z,17.57
2023-03-15T14:48:04.135Z,14.97
2023-03-15T14:50:43.676Z,11.87
2023-03-15T14:53:14.918Z,14.40
2023-03-15T14:55:41.690Z,19.77
2023-03-15T14:58:17.283Z,16.20
2023-03-15T15:00:47.569Z,13.03
2023-03-15T15:03:35.645Z,11.47
2023-03-15T15:06:04.750Z,9.33
2023-03-15T15:08:31.582Z,8.10
2023-03-15T15:10:58.455Z,8.50
2023-03-15T15:13:26.973Z,12.57
2023-03-15T15:15:56.466Z,10.27
2023-03-15T15:18:30.019Z,9.80
2023-03-15T15:20:57.530Z,14.43
2023-03-15T15:23:39.594Z,11.60
2023-03-15T15:26:27.062Z,14.23
2023-03-15T15:28:53.850Z,13.67
2023-03-15T15:31:25.041Z,13.00
2023-03-15T15:33:52.662Z,14.67
2023-03-15T15:36:22.529Z,11.97
2023-03-15T15:38:49.329Z,10.13
2023-03-15T15:41:26.242Z,14.43
2023-03-15T15:43:53.073Z,14.07
2023-03-15T15:46:23.915Z,12.87
2023-03-15T15:48:51.804Z,11.50
2023-03-15T15:51:32.338Z,14.67
2023-03-15T15:53:59.878Z,15.67
2023-03-15T15:56:40.113Z,12.50
2023-03-15T15:59:08.613Z,12.97
2023-03-15T16:01:36.595Z,11.13
2023-03-15T16:04:06.314Z,13.50
2023-03-15T16:06:35.502Z,12.90
2023-03-15T16:09:02.430Z,18.67
2023-03-15T16:11:31.665Z,16.63
2023-03-15T16:14:00.737Z,12.13
2023-03-15T16:16:32.288Z,12.00
2023-03-15T16:18:59.234Z,14.73
2023-03-15T16:21:43.456Z,12.63
2023-03-15T16:24:13.910Z,8.57
2023-03-15T16:26:41.000Z,9.70
2023-03-15T16:29:35.114Z,12.63
2023-03-15T16:32:16.882Z,13.30
2023-03-15T16:34:46.506Z,7.10
2023-03-15T16:37:17.618Z,8.33
2023-03-15T16:39:48.961Z,8.30
2023-03-15T16:42:18.897Z,14.37
2023-03-15T16:44:45.652Z,6.97
2023-03-15T16:47:12.462Z,9.87
2023-03-15T16:49:39.277Z,12.37
2023-03-15T16:52:08.640Z,10.33
2023-03-15T16:54:41.322Z,12.43
2023-03-15T16:57:21.794Z,10.67
2023-03-15T16:59:48.883Z,12.23
2023-03-15T17:02:22.970Z,14.10
2023-03-15T17:04:55.151Z,15.47
2023-03-15T17:07:32.802Z,15.27
2023-03-15T17:10:02.733Z,12.27
2023-03-15T17:12:31.969Z,14.60
2023-03-15T17:15:04.445Z,12.50
2023-03-15T17:17:35.951Z,16.13
2023-03-15T17:20:06.499Z,14.00
2023-03-15T17:22:35.420Z,11.17
2023-03-15T17:25:04.766Z,11.37
2023-03-15T17:27:36.389Z,11.97
2023-03-15T17:30:11.636Z,14.77
2023-03-15T17:32:38.589Z,14.27
2023-03-15T17:35:08.580Z,15.57
2023-03-15T17:37:37.843Z,17.83
2023-03-15T17:40:12.462Z,11.97
2023-03-15T17:42:39.312Z,15.50
2023-03-15T17:45:20.770Z,15.97
2023-03-15T17:47:48.684Z,11.43
2023-03-15T17:50:18.001Z,20.90
2023-03-15T17:52:44.858Z,15.07
2023-03-15T17:55:18.275Z,16.23
2023-03-15T17:57:54.045Z,12.80
2023-03-15T18:00:24.198Z,18.17
2023-03-15T18:02:55.655Z,13.83
2023-03-15T18:05:27.074Z,14.53
2023-03-15T18:08:00.117Z,12.57
2023-03-15T18:10:31.610Z,14.73
2023-03-15T18:12:58.383Z,12.67
2023-03-15T18:15:25.129Z,17.13
2023-03-15T18:17:52.002Z,21.27
2023-03-15T18:20:18.942Z,17.07
2023-03-15T18:22:45.754Z,23.30
2023-03-15T18:25:16.966Z,24.60
2023-03-15T18:27:44.153Z,19.37
2023-03-15T18:30:15.129Z,20.20
2023-03-15T18:32:44.414Z,20.70
2023-03-15T18:35:16.282Z,17.10
2023-03-15T18:37:43.212Z,20.47
2023-03-15T18:40:14.374Z,19.13
2023-03-15T18:42:41.935Z,18.80
2023-03-15T18:45:18.172Z,18.80
2023-03-15T18:47:45.089Z,16.87
2023-03-15T18:50:12.546Z,20.03
2023-03-15T18:52:39.839Z,19.77
2023-03-15T18:55:11.656Z,22.47
2023-03-15T18:57:41.444Z,20.40
2023-03-15T19:00:15.782Z,20.27
2023-03-15T19:02:46.115Z,22.17
2023-03-15T19:05:13.588Z,21.50
2023-03-15T19:07:40.501Z,24.93
2023-03-15T19:10:10.585Z,23.77
2023-03-15T19:12:37.568Z,32.40
2023-03-15T19:15:05.759Z,24.37
2023-03-15T19:17:32.797Z,22.43
2023-03-15T19:19:59.578Z,24.77
2023-03-15T19:22:29.142Z,25.60
2023-03-15T19:24:55.898Z,22.37
2023-03-15T19:27:22.732Z,25.70
2023-03-15T19:29:49.516Z,22.63
2023-03-15T19:32:16.421Z,25.13
2023-03-15T19:34:43.234Z,24.07
2023-03-15T19:37:12.589Z,32.17
2023-03-15T19:39:42.163Z,28.27
2023-03-15T19:42:11.473Z,29.23
2023-03-15T19:44:38.263Z,29.80
2023-03-15T19:47:05.114Z,22.77
2023-03-15T19:49:31.936Z,29.53
2023-03-15T19:51:58.733Z,30.33
2023-03-15T19:54:25.546Z,29.47
2023-03-15T19:56:54.009Z,32.40
2023-03-15T19:59:20.810Z,28.87
2023-03-15T20:01:47.649Z,32.03
2023-03-15T20:04:14.610Z,30.47
2023-03-15T20:06:43.910Z,36.07
2023-03-15T20:09:12.037Z,32.03
2023-03-15T20:11:38.833Z,29.33
2023-03-15T20:14:07.780Z,30.13
2023-03-15T20:16:34.592Z,29.13
2023-03-15T20:19:03.949Z,30.30
2023-03-15T20:21:30.763Z,33.97
2023-03-15T20:23:57.683Z,27.13
2023-03-15T20:26:25.231Z,29.97
2023-03-15T20:28:52.220Z,24.60
2023-03-15T20:31:19.278Z,28.13
2023-03-15T20:33:48.831Z,27.97
2023-03-15T20:36:16.359Z,29.93
2023-03-15T20:38:43.445Z,31.33
2023-03-15T20:41:10.256Z,27.73
2023-03-15T20:43:39.514Z,29.70
2023-03-15T20:46:06.428Z,24.53
2023-03-15T20:48:36.781Z,27.30
2023-03-15T20:51:04.154Z,32.33
2023-03-15T20:53:34.930Z,26.23
2023-03-15T20:56:02.077Z,30.40
2023-03-15T20:58:31.185Z,27.37
2023-03-15T21:01:13.154Z,33.63
2023-03-15T21:03:42.996Z,30.17
2023-03-15T21:06:09.843Z,30.80
2023-03-15T21:08:36.920Z,32.83
2023-03-15T21:11:04.587Z,32.63
2023-03-15T21:13:34.197Z,36.80
2023-03-15T21:16:05.716Z,33.43
2023-03-15T21:18:36.125Z,25.93
2023-03-15T21:21:05.365Z,29.17
2023-03-15T21:23:34.815Z,28.83
2023-03-15T21:26:03.441Z,30.60
2023-03-15T21:28:30.674Z,28.70
2023-03-15T21:30:57.836Z,29.57
2023-03-15T21:33:28.395Z,31.07
2023-03-15T21:35:59.160Z,27.53
2023-03-15T21:38:31.445Z,33.63
2023-03-15T21:40:59.513Z,26.70
2023-03-15T21:43:30.714Z,26.17
2023-03-15T21:46:04.684Z,30.87
2023-03-15T21:48:32.333Z,38.10
2023-03-15T21:50:59.445Z,30.33
2023-03-15T21:53:29.043Z,36.37
2023-03-15T21:55:57.130Z,35.27
2023-03-15T21:58:24.681Z,37.53
2023-03-15T22:01:04.934Z,40.83
2023-03-15T22:03:32.230Z,34.27
2023-03-15T22:05:58.995Z,42.73
2023-03-15T22:08:25.838Z,39.13
2023-03-15T22:10:56.510Z,39.73
2023-03-15T22:13:23.321Z,30.17
2023-03-15T22:15:50.244Z,35.13
2023-03-15T22:18:17.022Z,35.07
2023-03-15T22:20:46.360Z,33.43
2023-03-15T22:23:13.169Z,34.90
2023-03-15T22:25:42.290Z,41.30
2023-03-15T22:28:11.219Z,38.93
2023-03-15T22:30:38.028Z,33.93
2023-03-15T22:33:04.876Z,39.00
2023-03-15T22:35:31.739Z,34.80
2023-03-15T22:37:58.530Z,40.70
2023-03-15T22:40:26.671Z,39.77
2023-03-15T22:42:53.704Z,36.30
2023-03-15T22:45:21.223Z,37.27
2023-03-15T22:47:51.193Z,39.10
2023-03-15T22:50:18.046Z,40.13
2023-03-15T22:52:44.813Z,43.73
2023-03-15T22:55:11.928Z,43.80
2023-03-15T22:57:38.805Z,43.77
2023-03-15T23:00:07.476Z,37.13
2023-03-15T23:02:36.532Z,41.03
2023-03-15T23:05:05.882Z,34.13
2023-03-15T23:07:35.151Z,42.77
2023-03-15T23:10:01.959Z,40.20
2023-03-15T23:12:36.339Z,36.60
2023-03-15T23:15:06.562Z,39.77
2023-03-15T23:17:33.328Z,43.67
2023-03-15T23:20:00.111Z,33.47
2023-03-15T23:22:26.915Z,35.10
2023-03-15T23:24:57.838Z,35.97
2023-03-15T23:27:26.114Z,37.23
2023-03-15T23:29:54.860Z,33.63
2023-03-15T23:32:25.182Z,34.87
2023-03-15T23:34:53.652Z,39.87
2023-03-15T23:37:20.796Z,34.37
2023-03-15T23:39:47.905Z,33.87
2023-03-15T23:42:14.673Z,37.17
2023-03-15T23:44:41.446Z,37.10
2023-03-15T23:47:12.345Z,32.63
2023-03-15T23:49:42.687Z,38.77
2023-03-15T23:52:09.561Z,40.83
2023-03-15T23:54:41.219Z,41.53
2023-03-15T23:57:12.722Z,38.80
2023-03-15T23:59:39.749Z,31.47
